Time;durP1;ratioP1;P1;durP2;ratioP2;P2;SDS_P1;SDS_P2;PMS_P1;PMS_P2;Temp;Humidity;BMP_temperature;BMP_pressure;BME280_temperature;BME280_humidity;BME280_pressure;Samples;Min_cycle;Max_cycle;Signal;HPM_P1;HPM_P2
2024/04/23 00:00:29;;;;;;;11.75;8.13;;;;;21.00;100974.00;;;;2219383;26;20353;-58
2024/04/23 00:01:29;;;;;;;14.33;8.80;;;;;21.10;100819.00;;;;2222796;26;20349;-58
2024/04/23 00:02:30;;;;;;;13.40;8.30;;;;;21.00;100955.00;;;;2216233;26;20258;-57
2024/04/23 00:03:30;;;;;;;13.83;8.50;;;;;21.00;100916.00;;;;2190917;26;20261;-58
2024/04/23 00:04:30;;;;;;;10.87;8.00;;;;;21.10;101074.00;;;;2205930;26;20268;-58
2024/04/23 00:05:31;;;;;;;11.13;8.07;;;;;21.10;100793.00;;;;2219836;26;20647;-60
2024/04/23 00:06:31;;;;;;;11.90;7.80;;;;;21.00;101045.00;;;;2222731;26;20306;-58
2024/04/23 00:07:31;;;;;;;12.80;8.77;;;;;21.10;100886.00;;;;2216299;26;20254;-58
2024/04/23 00:08:32;;;;;;;11.40;7.57;;;;;21.10;101048.00;;;;2219562;26;20248;-57
2024/04/23 00:09:32;;;;;;;12.30;8.90;;;;;21.10;100787.00;;;;2236692;26;20900;-57
2024/04/23 00:10:33;;;;;;;12.10;7.90;;;;;21.00;101070.00;;;;2216798;26;20252;-58
2024/04/23 00:11:33;;;;;;;12.07;8.60;;;;;21.00;100703.00;;;;2223233;26;20247;-58
2024/04/23 00:12:33;;;;;;;12.80;7.57;;;;;21.00;100950.00;;;;2212617;26;22513;-58
2024/04/23 00:13:34;;;;;;;11.17;7.70;;;;;21.00;101055.00;;;;2221415;26;20239;-58
2024/04/23 00:14:34;;;;;;;11.43;7.70;;;;;20.90;100847.00;;;;2235234;26;20250;-58
2024/04/23 00:15:34;;;;;;;10.37;7.30;;;;;21.00;101048.00;;;;2229780;26;20336;-57
2024/04/23 00:16:35;;;;;;;10.10;7.37;;;;;21.00;101052.00;;;;2221045;26;20285;-58
2024/04/23 00:17:35;;;;;;;11.27;7.80;;;;;21.00;100890.00;;;;2205399;26;20737;-57
2024/04/23 00:18:35;;;;;;;10.60;7.90;;;;;21.00;100879.00;;;;2227032;26;20267;-58
2024/04/23 00:19:36;;;;;;;11.03;6.83;;;;;21.00;100787.00;;;;2221763;26;20255;-59
2024/04/23 00:20:36;;;;;;;12.17;7.97;;;;;21.00;100883.00;;;;2232513;26;20726;-58
2024/04/23 00:21:36;;;;;;;11.70;8.00;;;;;21.00;100972.00;;;;2223072;26;20621;-58
2024/04/23 00:22:37;;;;;;;12.37;7.93;;;;;21.00;100620.00;;;;2210012;26;20301;-58
2024/04/23 00:23:38;;;;;;;10.20;7.17;;;;;21.00;100847.00;;;;2225142;26;20262;-58
2024/04/23 00:24:39;;;;;;;9.70;6.97;;;;;20.90;101038.00;;;;2215863;26;20275;-58
2024/04/23 00:25:39;;;;;;;10.63;7.63;;;;;21.00;101073.00;;;;2233958;26;20250;-57
2024/04/23 00:26:39;;;;;;;12.80;7.63;;;;;21.00;101045.00;;;;2218014;26;20302;-58
2024/04/23 00:27:40;;;;;;;10.73;7.27;;;;;21.00;101047.00;;;;2218455;26;20957;-58
2024/04/23 00:28:40;;;;;;;9.33;7.17;;;;;21.00;100986.00;;;;2222912;26;20255;-58
2024/04/23 00:29:40;;;;;;;10.90;7.33;;;;;21.00;100729.00;;;;2216977;26;20315;-58
2024/04/23 00:30:41;;;;;;;8.50;6.30;;;;;21.00;101045.00;;;;2221063;26;20389;-57
2024/04/23 00:31:41;;;;;;;13.23;7.20;;;;;21.00;100738.00;;;;2203395;26;20244;-57
2024/04/23 00:32:41;;;;;;;8.90;6.23;;;;;21.00;100908.00;;;;2221349;26;20255;-58
2024/04/23 00:33:42;;;;;;;9.23;6.67;;;;;21.00;100707.00;;;;2220904;26;20297;-58
2024/04/23 00:34:42;;;;;;;10.03;6.30;;;;;21.00;100785.00;;;;2193225;26;20300;-58
2024/04/23 00:35:42;;;;;;;10.47;7.03;;;;;20.90;101078.00;;;;2221860;26;20317;-58
2024/04/23 00:36:56;;;;;;;9.73;6.90;;;;;20.90;101060.00;;;;2209414;26;20299;-58
2024/04/23 00:37:56;;;;;;;9.30;6.63;;;;;21.00;101072.00;;;;2222694;26;20377;-58
2024/04/23 00:38:57;;;;;;;9.90;7.30;;;;;21.00;101044.00;;;;2220885;26;20354;-58
2024/04/23 00:39:57;;;;;;;11.37;7.17;;;;;20.90;100817.00;;;;2222679;26;20873;-60
2024/04/23 00:40:57;;;;;;;10.07;6.50;;;;;21.00;101094.00;;;;2222324;26;20569;-57
2024/04/23 00:41:58;;;;;;;11.00;6.90;;;;;20.90;100844.00;;;;2211655;26;20243;-57
2024/04/23 00:42:58;;;;;;;9.00;5.83;;;;;21.00;101043.00;;;;2224321;26;20315;-58
2024/04/23 00:43:59;;;;;;;10.97;7.00;;;;;20.90;101075.00;;;;2225477;26;20255;-58
2024/04/23 00:44:59;;;;;;;8.90;5.73;;;;;20.90;100818.00;;;;2217414;26;20291;-58
2024/04/23 00:46:00;;;;;;;10.87;6.40;;;;;20.50;101048.00;;;;2209519;26;20325;-58
2024/04/23 00:47:00;;;;;;;10.43;6.90;;;;;20.90;100775.00;;;;2203124;26;20860;-57
2024/04/23 00:48:00;;;;;;;10.17;6.77;;;;;20.90;100950.00;;;;2194971;26;20331;-58
2024/04/23 00:49:01;;;;;;;11.13;6.33;;;;;21.00;101065.00;;;;2196014;26;20274;-58
2024/04/23 00:50:01;;;;;;;9.60;6.17;;;;;20.90;101040.00;;;;2228686;26;20292;-58
2024/04/23 00:51:01;;;;;;;8.30;5.67;;;;;20.90;101038.00;;;;2215163;26;20267;-57
2024/04/23 00:52:02;;;;;;;9.30;6.20;;;;;20.90;101045.00;;;;2203259;26;20723;-58
2024/04/23 00:53:02;;;;;;;9.57;6.37;;;;;21.00;100725.00;;;;2217908;26;20248;-57
2024/04/23 00:54:03;;;;;;;8.10;5.80;;;;;20.90;101038.00;;;;2196653;26;20320;-58
2024/04/23 00:55:03;;;;;;;9.70;5.93;;;;;20.90;100821.00;;;;2226998;26;20326;-58
2024/04/23 00:56:04;;;;;;;10.17;6.30;;;;;20.90;101036.00;;;;2219850;26;20290;-58
2024/04/23 00:57:04;;;;;;;8.60;5.30;;;;;20.90;100884.00;;;;2210939;26;20252;-57
2024/04/23 00:58:05;;;;;;;8.83;6.30;;;;;21.00;100912.00;;;;2228138;26;22447;-57
2024/04/23 00:59:05;;;;;;;8.50;5.80;;;;;20.90;100781.00;;;;2221020;26;20302;-57
2024/04/23 01:00:06;;;;;;;8.57;5.87;;;;;20.90;100618.00;;;;2215113;26;20338;-58
2024/04/23 01:01:08;;;;;;;6.37;4.80;;;;;20.90;100996.00;;;;2220496;26;20252;-59
2024/04/23 01:02:08;;;;;;;10.57;6.95;;;;;21.00;101042.00;;;;2205098;26;20287;-57
2024/04/23 01:03:09;;;;;;;9.23;5.60;;;;;20.90;100777.00;;;;2221202;26;20256;-57
2024/04/23 01:04:09;;;;;;;8.30;5.30;;;;;20.90;101003.00;;;;2225174;26;20285;-57
2024/04/23 01:05:10;;;;;;;7.83;5.53;;;;;20.10;101031.00;;;;2218582;26;20255;-58
2024/04/23 01:06:10;;;;;;;7.73;5.43;;;;;20.90;101038.00;;;;2219508;26;20255;-59
2024/04/23 01:07:10;;;;;;;6.60;4.80;;;;;20.90;100869.00;;;;2198414;26;20332;-59
2024/04/23 01:08:11;;;;;;;8.07;5.57;;;;;20.90;100824.00;;;;2221066;26;20372;-59
2024/04/23 01:09:11;;;;;;;7.30;5.60;;;;;20.90;101040.00;;;;2224315;26;20247;-58
2024/04/23 01:10:11;;;;;;;8.50;5.43;;;;;20.90;100924.00;;;;2221514;26;20255;-58
2024/04/23 01:11:12;;;;;;;6.77;5.07;;;;;20.90;100867.00;;;;2229257;26;20410;-58
2024/04/23 01:12:12;;;;;;;7.07;4.70;;;;;20.90;100812.00;;;;2208887;26;20263;-57
2024/04/23 01:13:12;;;;;;;10.00;5.07;;;;;20.90;101043.00;;;;2223644;26;20254;-58
2024/04/23 01:14:13;;;;;;;6.60;5.13;;;;;20.90;101024.00;;;;2220263;26;20263;-58
2024/04/23 01:15:13;;;;;;;8.50;5.60;;;;;20.90;101039.00;;;;2208405;26;20342;-58
2024/04/23 01:16:13;;;;;;;7.67;5.20;;;;;20.90;101034.00;;;;2214114;26;20264;-57
2024/04/23 01:17:14;;;;;;;8.20;4.93;;;;;20.90;100898.00;;;;2192564;26;20298;-58
2024/04/23 01:18:14;;;;;;;8.47;5.67;;;;;20.90;100869.00;;;;2201778;26;20312;-58
2024/04/23 01:19:32;;;;;;;8.60;5.40;;;;;20.90;101045.00;;;;2210437;26;20697;-57
2024/04/23 01:20:32;;;;;;;7.00;4.85;;;;;20.70;101053.00;;;;2228372;26;20289;-58
2024/04/23 01:21:42;;;;;;;10.10;5.70;;;;;20.90;101019.00;;;;2195412;26;20750;-58
2024/04/23 01:22:47;;;;;;;8.38;5.13;;;;;20.80;100821.00;;;;2194913;26;20311;-58
2024/04/23 01:24:02;;;;;;;8.55;4.90;;;;;20.90;100967.00;;;;2203380;26;20249;-58
2024/04/23 01:25:08;;;;;;;7.45;5.03;;;;;20.80;100839.00;;;;2197686;26;20252;-59
2024/04/23 01:26:09;;;;;;;6.30;4.53;;;;;20.80;101045.00;;;;2198326;26;20312;-58
2024/04/23 01:27:09;;;;;;;5.67;4.43;;;;;20.80;101044.00;;;;2193098;26;20272;-58
2024/04/23 01:28:11;;;;;;;7.00;4.57;;;;;20.80;100875.00;;;;2193450;26;20291;-57
2024/04/23 01:29:11;;;;;;;6.20;4.63;;;;;20.80;100769.00;;;;2204823;26;20318;-58
2024/04/23 01:30:11;;;;;;;7.10;4.47;;;;;20.90;100679.00;;;;2198898;26;20830;-58
2024/04/23 01:31:12;;;;;;;7.20;4.70;;;;;20.70;100857.00;;;;2213146;26;20260;-58
2024/04/23 01:32:12;;;;;;;7.37;4.70;;;;;20.80;100931.00;;;;2202493;26;20296;-57
2024/04/23 01:33:14;;;;;;;5.80;4.20;;;;;20.80;100852.00;;;;2203763;26;20294;-57
2024/04/23 01:34:14;;;;;;;6.07;4.25;;;;;20.80;100891.00;;;;2207377;26;20796;-57
2024/04/23 01:35:15;;;;;;;6.90;4.77;;;;;20.80;100846.00;;;;2221713;26;20361;-58
2024/04/23 01:36:15;;;;;;;6.20;4.90;;;;;20.80;101045.00;;;;2233986;26;20262;-58
2024/04/23 01:37:16;;;;;;;7.90;4.40;;;;;20.80;101055.00;;;;2189471;26;20480;-58
2024/04/23 01:38:16;;;;;;;8.60;4.70;;;;;20.80;100658.00;;;;2186611;26;20327;-58
2024/04/23 01:39:16;;;;;;;8.87;5.30;;;;;20.80;100716.00;;;;2220317;26;20311;-58
2024/04/23 01:40:17;;;;;;;7.90;4.67;;;;;20.80;101029.00;;;;2227650;26;20724;-57
2024/04/23 01:41:18;;;;;;;6.20;4.40;;;;;20.80;100858.00;;;;2211314;26;20298;-58
2024/04/23 01:42:18;;;;;;;6.10;4.60;;;;;20.80;100819.00;;;;2197840;26;20343;-57
2024/04/23 01:43:18;;;;;;;5.53;4.30;;;;;20.80;100930.00;;;;2206650;26;20253;-58
2024/04/23 01:44:19;;;;;;;7.03;4.47;;;;;20.80;101003.00;;;;2200526;26;20253;-58
2024/04/23 01:45:19;;;;;;;6.90;4.50;;;;;20.80;100924.00;;;;2209776;26;20291;-58
2024/04/23 01:46:20;;;;;;;6.10;3.93;;;;;20.80;100833.00;;;;2220067;26;20251;-57
2024/04/23 01:47:20;;;;;;;6.80;4.23;;;;;20.80;101021.00;;;;2203870;26;20260;-58
2024/04/23 01:48:21;;;;;;;6.90;4.57;;;;;20.80;100761.00;;;;2207721;26;20249;-57
2024/04/23 01:49:22;;;;;;;5.53;3.83;;;;;20.80;100880.00;;;;2211444;26;20252;-57
2024/04/23 01:50:22;;;;;;;6.13;4.23;;;;;20.80;101018.00;;;;2198108;26;20304;-58
2024/04/23 01:51:22;;;;;;;6.33;3.90;;;;;20.80;100797.00;;;;2192989;26;20321;-58
2024/04/23 01:52:23;;;;;;;7.37;4.33;;;;;20.80;100803.00;;;;2197793;26;20362;-58
2024/04/23 01:53:23;;;;;;;6.80;4.10;;;;;20.80;100995.00;;;;2219898;26;20689;-58
2024/04/23 01:54:23;;;;;;;7.13;4.20;;;;;20.80;101011.00;;;;2229493;26;20258;-58
2024/04/23 01:55:24;;;;;;;8.27;4.20;;;;;20.80;101021.00;;;;2227227;26;20376;-58
2024/04/23 01:56:24;;;;;;;5.73;4.00;;;;;20.80;101065.00;;;;2223507;26;20301;-58
2024/04/23 01:57:24;;;;;;;5.60;3.70;;;;;20.70;101034.00;;;;2213492;26;20294;-57
2024/04/23 01:58:25;;;;;;;6.10;3.80;;;;;20.80;100642.00;;;;2222878;26;20303;-58
2024/04/23 01:59:25;;;;;;;5.90;3.93;;;;;20.80;101011.00;;;;2222213;26;20263;-58
2024/04/23 02:00:26;;;;;;;6.90;4.00;;;;;20.50;101020.00;;;;2219618;26;20830;-58
2024/04/23 02:01:26;;;;;;;5.70;3.63;;;;;20.80;100860.00;;;;2207012;26;20332;-59
2024/04/23 02:02:27;;;;;;;6.50;3.93;;;;;20.60;100915.00;;;;2180703;26;20265;-61
2024/04/23 02:03:27;;;;;;;6.13;4.00;;;;;20.70;100943.00;;;;2192847;26;20404;-60
2024/04/23 02:04:28;;;;;;;6.30;4.10;;;;;20.70;100993.00;;;;2190446;26;20301;-58
2024/04/23 02:05:28;;;;;;;6.67;4.23;;;;;20.70;100834.00;;;;2193453;26;20327;-58
2024/04/23 02:06:29;;;;;;;5.67;3.50;;;;;20.80;100886.00;;;;2206786;26;20244;-58
2024/04/23 02:07:30;;;;;;;5.60;3.70;;;;;20.80;100852.00;;;;2210267;26;20252;-58
2024/04/23 02:08:30;;;;;;;4.53;3.17;;;;;20.70;101039.00;;;;2219506;26;20251;-58
2024/04/23 02:09:30;;;;;;;7.90;4.33;;;;;20.70;100738.00;;;;2219679;26;20481;-57
2024/04/23 02:10:31;;;;;;;5.27;3.70;;;;;20.70;100738.00;;;;2212406;26;20267;-57
2024/04/23 02:11:31;;;;;;;5.97;3.37;;;;;20.70;100831.00;;;;2225159;26;20259;-57
2024/04/23 02:12:31;;;;;;;6.20;3.57;;;;;20.70;101016.00;;;;2224862;26;20250;-58
2024/04/23 02:13:32;;;;;;;6.17;4.20;;;;;20.70;100636.00;;;;2240297;26;20246;-57
2024/04/23 02:14:32;;;;;;;5.60;3.30;;;;;20.70;100797.00;;;;2223761;26;20259;-57
2024/04/23 02:15:33;;;;;;;4.73;3.23;;;;;20.70;100982.00;;;;2223060;26;20314;-58
2024/04/23 02:16:33;;;;;;;7.70;4.23;;;;;20.70;101031.00;;;;2219472;26;20247;-57
2024/04/23 02:17:34;;;;;;;7.40;4.00;;;;;20.70;101019.00;;;;2213362;26;20323;-58
2024/04/23 02:18:34;;;;;;;6.45;3.90;;;;;20.40;101036.00;;;;2227097;26;20250;-58
2024/04/23 02:19:35;;;;;;;5.93;3.70;;;;;20.70;101034.00;;;;2204731;26;20328;-58
2024/04/23 02:20:35;;;;;;;5.37;3.63;;;;;20.70;101009.00;;;;2232950;26;20262;-58
2024/04/23 02:21:35;;;;;;;5.30;3.70;;;;;20.70;100827.00;;;;2226519;26;20255;-57
2024/04/23 02:22:36;;;;;;;6.40;3.77;;;;;20.70;100688.00;;;;2203891;26;20584;-57
2024/04/23 02:23:37;;;;;;;4.93;3.70;;;;;20.70;100997.00;;;;2217712;26;20255;-59
2024/04/23 02:24:38;;;;;;;6.33;3.63;;;;;20.70;100826.00;;;;2206898;26;20864;-59
2024/04/23 02:25:38;;;;;;;5.30;3.22;;;;;20.70;101010.00;;;;2221952;26;20251;-57
2024/04/23 02:26:39;;;;;;;6.27;3.93;;;;;20.70;100675.00;;;;2220483;26;20255;-62
2024/04/23 02:27:39;;;;;;;5.30;3.70;;;;;20.70;100822.00;;;;2214591;26;20712;-58
2024/04/23 02:28:39;;;;;;;6.00;3.67;;;;;20.70;100761.00;;;;2221115;26;20251;-58
2024/04/23 02:29:40;;;;;;;4.67;3.30;;;;;20.70;101037.00;;;;2224224;26;20259;-57
2024/04/23 02:30:40;;;;;;;5.33;3.70;;;;;20.70;100879.00;;;;2222512;26;20353;-58
2024/04/23 02:31:40;;;;;;;5.23;3.70;;;;;20.70;100726.00;;;;2219136;26;20297;-57
2024/04/23 02:32:41;;;;;;;5.60;3.33;;;;;20.70;101027.00;;;;2223697;26;20835;-58
2024/04/23 02:33:41;;;;;;;5.80;3.23;;;;;20.70;100775.00;;;;2222224;26;20535;-59
2024/04/23 02:34:41;;;;;;;5.47;3.60;;;;;20.70;100776.00;;;;2224391;26;20592;-58
2024/04/23 02:35:42;;;;;;;5.70;3.57;;;;;20.50;101031.00;;;;2218897;26;20598;-57
2024/04/23 02:36:42;;;;;;;5.03;3.20;;;;;20.60;100893.00;;;;2213917;26;20708;-58
2024/04/23 02:37:43;;;;;;;4.30;3.40;;;;;20.70;100692.00;;;;2223682;26;20251;-57
2024/04/23 02:38:43;;;;;;;5.57;3.30;;;;;20.60;101027.00;;;;2222434;26;20256;-58
2024/04/23 02:39:43;;;;;;;6.50;3.77;;;;;20.60;100665.00;;;;2223072;26;20255;-58
2024/04/23 02:40:44;;;;;;;4.73;3.00;;;;;20.60;100823.00;;;;2221615;26;20251;-58
2024/04/23 02:41:47;;;;;;;5.00;3.83;;;;;20.60;100820.00;;;;2213365;26;20255;-58
2024/04/23 02:42:48;;;;;;;4.97;2.90;;;;;20.60;100994.00;;;;2221286;26;20326;-59
2024/04/23 02:43:48;;;;;;;5.67;3.07;;;;;20.70;100991.00;;;;2207356;26;20260;-58
2024/04/23 02:44:49;;;;;;;5.63;3.40;;;;;20.60;100814.00;;;;2215393;26;20251;-57
2024/04/23 02:45:49;;;;;;;6.03;3.27;;;;;20.60;100987.00;;;;2219414;26;20255;-58
2024/04/23 02:46:49;;;;;;;5.13;2.90;;;;;20.50;100991.00;;;;2225984;26;20258;-58
2024/04/23 02:47:50;;;;;;;5.17;3.20;;;;;20.60;100821.00;;;;2220392;26;20278;-58
2024/04/23 02:48:50;;;;;;;5.80;3.37;;;;;20.60;100968.00;;;;2221806;26;20290;-58
2024/04/23 02:49:50;;;;;;;5.20;3.30;;;;;20.60;100976.00;;;;2227163;26;20250;-58
2024/04/23 02:50:51;;;;;;;4.73;3.10;;;;;20.60;101017.00;;;;2222653;26;20263;-57
2024/04/23 02:51:53;;;;;;;4.93;3.23;;;;;20.60;100814.00;;;;2211382;26;20259;-57
2024/04/23 02:52:53;;;;;;;4.97;3.15;;;;;20.60;100724.00;;;;2220766;26;20326;-57
2024/04/23 02:53:53;;;;;;;5.87;3.87;;;;;20.60;100730.00;;;;2223325;26;20298;-59
2024/04/23 02:54:54;;;;;;;4.80;3.13;;;;;20.60;100642.00;;;;2226942;26;20589;-57
2024/04/23 02:55:54;;;;;;;4.57;2.73;;;;;20.60;101018.00;;;;2221908;26;20256;-57
2024/04/23 02:56:55;;;;;;;5.47;2.87;;;;;20.60;100721.00;;;;2209331;26;20263;-58
2024/04/23 02:57:55;;;;;;;4.77;3.10;;;;;20.60;100722.00;;;;2222263;26;20283;-58
2024/04/23 02:58:55;;;;;;;4.07;2.87;;;;;20.60;101008.00;;;;2232545;26;20300;-57
2024/04/23 02:59:56;;;;;;;5.07;3.20;;;;;20.60;100873.00;;;;2219011;26;20673;-58
2024/04/23 03:00:56;;;;;;;5.87;3.43;;;;;20.50;100972.00;;;;2223767;26;20247;-58
2024/04/23 03:02:15;;;;;;;5.53;3.47;;;;;20.60;100997.00;;;;2209718;26;20290;-58
2024/04/23 03:03:15;;;;;;;4.93;2.70;;;;;20.60;100977.00;;;;2205744;26;20256;-58
2024/04/23 03:04:15;;;;;;;4.07;2.90;;;;;20.60;100803.00;;;;2212637;26;20247;-58
2024/04/23 03:05:15;;;;;;;4.60;3.17;;;;;20.60;100809.00;;;;2215184;26;20251;-58
2024/04/23 03:06:16;;;;;;;5.07;3.07;;;;;20.60;100984.00;;;;2223634;26;20298;-57
2024/04/23 03:07:16;;;;;;;4.50;3.10;;;;;20.60;100812.00;;;;2211175;26;20289;-58
2024/04/23 03:08:17;;;;;;;4.43;2.80;;;;;20.60;100811.00;;;;2222925;26;20255;-58
2024/04/23 03:09:17;;;;;;;4.00;2.97;;;;;20.60;100696.00;;;;2221987;26;20311;-58
2024/04/23 03:10:17;;;;;;;4.80;2.80;;;;;20.60;100846.00;;;;2223214;26;20297;-58
2024/04/23 03:11:18;;;;;;;4.60;2.83;;;;;20.60;100882.00;;;;2221122;26;20289;-58
2024/04/23 03:12:18;;;;;;;4.97;2.83;;;;;20.60;100972.00;;;;2212911;26;20728;-58
2024/04/23 03:13:19;;;;;;;5.13;3.03;;;;;20.60;101008.00;;;;2223491;26;20271;-58
2024/04/23 03:14:19;;;;;;;4.43;2.87;;;;;20.50;100976.00;;;;2221074;26;20267;-58
2024/04/23 03:15:19;;;;;;;4.00;3.00;;;;;20.20;101037.00;;;;2226641;26;20901;-58
2024/04/23 03:16:20;;;;;;;4.37;2.83;;;;;20.60;100784.00;;;;2227851;26;20267;-58
2024/04/23 03:17:20;;;;;;;4.00;2.60;;;;;19.70;101001.00;;;;2211604;26;20598;-57
2024/04/23 03:18:20;;;;;;;4.30;2.53;;;;;20.60;101026.00;;;;2221722;26;20255;-57
2024/04/23 03:19:22;;;;;;;4.50;2.50;;;;;20.60;100780.00;;;;2206130;26;20358;-57
2024/04/23 03:20:23;;;;;;;4.60;2.70;;;;;20.60;100989.00;;;;2221985;26;20734;-57
2024/04/23 03:21:23;;;;;;;4.43;2.60;;;;;20.60;101003.00;;;;2221673;26;20303;-57
2024/04/23 03:22:24;;;;;;;5.93;3.00;;;;;20.50;100634.00;;;;2204918;26;20360;-58
2024/04/23 03:23:24;;;;;;;3.70;2.57;;;;;20.50;100983.00;;;;2214269;26;20255;-58
2024/04/23 03:24:25;;;;;;;3.33;2.23;;;;;20.50;100709.00;;;;2221872;26;20309;-59
2024/04/23 03:25:25;;;;;;;4.50;2.87;;;;;20.50;100989.00;;;;2222615;26;20263;-57
2024/04/23 03:26:26;;;;;;;4.60;3.00;;;;;20.50;100978.00;;;;2218640;26;20301;-58
2024/04/23 03:27:26;;;;;;;3.80;2.63;;;;;20.50;100975.00;;;;2211692;26;20255;-58
2024/04/23 03:28:26;;;;;;;3.93;2.47;;;;;20.50;100594.00;;;;2220672;26;20255;-58
2024/04/23 03:29:27;;;;;;;5.23;3.17;;;;;20.50;100974.00;;;;2213484;26;20280;-58
2024/04/23 03:30:27;;;;;;;5.03;3.13;;;;;20.50;100545.00;;;;2218228;26;20258;-57
2024/04/23 03:31:28;;;;;;;3.90;2.57;;;;;20.50;101002.00;;;;2236696;26;20288;-57
2024/04/23 03:32:28;;;;;;;4.83;2.80;;;;;20.50;100985.00;;;;2207617;26;20259;-58
2024/04/23 03:33:28;;;;;;;4.40;2.67;;;;;20.50;100978.00;;;;2220452;26;20251;-58
2024/04/23 03:34:29;;;;;;;5.73;3.10;;;;;20.50;100714.00;;;;2203053;26;20267;-58
2024/04/23 03:35:30;;;;;;;3.80;2.80;;;;;20.50;100796.00;;;;2194639;26;20369;-59
2024/04/23 03:36:30;;;;;;;4.20;2.50;;;;;20.50;100973.00;;;;2217145;26;20285;-57
2024/04/23 03:37:30;;;;;;;3.27;2.17;;;;;20.50;100973.00;;;;2208768;26;20259;-58
2024/04/23 03:38:31;;;;;;;3.80;2.57;;;;;20.50;100980.00;;;;2219343;26;20403;-58
2024/04/23 03:39:31;;;;;;;4.00;2.33;;;;;20.50;100988.00;;;;2224453;26;20302;-57
2024/04/23 03:40:31;;;;;;;6.17;2.80;;;;;20.50;100797.00;;;;2221066;26;20243;-58
2024/04/23 03:41:32;;;;;;;5.57;3.00;;;;;20.50;100991.00;;;;2228745;26;20254;-58
2024/04/23 03:42:32;;;;;;;3.93;2.53;;;;;20.50;101011.00;;;;2210860;26;20302;-57
2024/04/23 03:43:32;;;;;;;9.67;2.70;;;;;20.50;100986.00;;;;2205797;26;20289;-58
2024/04/23 03:44:33;;;;;;;4.83;2.90;;;;;20.50;101010.00;;;;2206600;26;20260;-59
2024/04/23 03:45:33;;;;;;;3.77;2.50;;;;;20.50;100949.00;;;;2222281;26;20255;-58
2024/04/23 03:46:33;;;;;;;3.67;2.40;;;;;20.50;100904.00;;;;2203764;26;20373;-59
2024/04/23 03:47:34;;;;;;;4.00;2.47;;;;;20.50;100979.00;;;;2201557;26;20282;-58
2024/04/23 03:48:34;;;;;;;4.60;3.30;;;;;20.40;100743.00;;;;2212886;26;20249;-57
2024/04/23 03:49:35;;;;;;;4.30;3.10;;;;;20.50;100834.00;;;;2219172;26;20326;-57
2024/04/23 03:50:35;;;;;;;4.13;2.80;;;;;20.50;100794.00;;;;2222343;26;20285;-58
2024/04/23 03:51:35;;;;;;;4.80;2.23;;;;;20.50;100626.00;;;;2221837;26;20298;-57
2024/04/23 03:52:36;;;;;;;5.07;2.83;;;;;20.50;100790.00;;;;2210879;26;20297;-58
2024/04/23 03:53:36;;;;;;;3.50;2.57;;;;;20.50;100970.00;;;;2218476;26;20248;-59
2024/04/23 03:54:36;;;;;;;5.03;3.30;;;;;20.50;100950.00;;;;2215685;26;20259;-58
2024/04/23 03:55:37;;;;;;;3.47;2.43;;;;;20.40;100976.00;;;;2222057;26;20260;-57
2024/04/23 03:56:37;;;;;;;4.40;2.30;;;;;20.40;100789.00;;;;2210095;26;20346;-58
2024/04/23 03:57:38;;;;;;;3.83;2.67;;;;;20.50;100963.00;;;;2202923;26;20612;-58
2024/04/23 03:58:38;;;;;;;4.83;2.63;;;;;20.50;100970.00;;;;2227742;26;20996;-58
2024/04/23 03:59:38;;;;;;;6.17;2.60;;;;;20.50;100979.00;;;;2219209;26;20252;-58
2024/04/23 04:00:39;;;;;;;4.50;2.60;;;;;20.00;100798.00;;;;2221577;26;20290;-58
2024/04/23 04:01:39;;;;;;;5.03;2.73;;;;;20.40;100796.00;;;;2217078;26;20264;-59
2024/04/23 04:06:50;;;;;;;4.30;2.50;;;;;20.40;100996.00;;;;2204867;26;20252;-57
2024/04/23 04:07:50;;;;;;;4.77;2.70;;;;;20.40;101012.00;;;;2211365;26;20252;-57
2024/04/23 04:08:50;;;;;;;5.73;2.77;;;;;20.40;100975.00;;;;2220650;26;20340;-58
2024/04/23 04:09:51;;;;;;;4.07;2.90;;;;;20.40;100702.00;;;;2221914;26;20307;-57
2024/04/23 04:10:51;;;;;;;2.77;1.70;;;;;19.80;100972.00;;;;2221710;26;20259;-59
2024/04/23 04:11:56;;;;;;;3.93;2.00;;;;;20.40;100646.00;;;;2210623;26;20302;-57
2024/04/23 04:12:56;;;;;;;3.35;2.08;;;;;20.40;100979.00;;;;2222875;26;20294;-58
2024/04/23 04:14:06;;;;;;;4.23;2.60;;;;;20.40;100745.00;;;;2221294;26;20294;-58
2024/04/23 04:15:06;;;;;;;4.07;2.60;;;;;20.40;100747.00;;;;2209731;26;20291;-58
2024/04/23 04:16:07;;;;;;;4.00;2.67;;;;;20.40;100656.00;;;;2220986;26;20251;-58
2024/04/23 04:17:07;;;;;;;4.33;2.40;;;;;20.40;100648.00;;;;2210651;26;20260;-57
2024/04/23 04:18:08;;;;;;;4.90;2.67;;;;;20.40;100972.00;;;;2221794;26;20527;-57
2024/04/23 04:19:08;;;;;;;4.50;2.43;;;;;20.40;100843.00;;;;2220812;26;20298;-57
2024/04/23 04:20:09;;;;;;;3.60;2.27;;;;;20.40;100948.00;;;;2222148;26;20247;-57
2024/04/23 04:21:09;;;;;;;4.70;2.73;;;;;20.40;100949.00;;;;2220793;26;20382;-58
2024/04/23 04:22:09;;;;;;;3.80;2.40;;;;;20.40;100759.00;;;;2218122;26;20370;-58
2024/04/23 04:23:10;;;;;;;3.47;2.50;;;;;20.00;100829.00;;;;2220037;26;20243;-57
2024/04/23 04:24:10;;;;;;;4.23;2.13;;;;;20.40;100690.00;;;;2219110;26;20256;-57
2024/04/23 04:25:11;;;;;;;3.50;2.20;;;;;20.40;100734.00;;;;2221929;26;20333;-58
2024/04/23 04:26:12;;;;;;;3.40;2.30;;;;;20.30;100950.00;;;;2220218;26;20244;-57
2024/04/23 04:27:12;;;;;;;3.10;2.13;;;;;19.80;101002.00;;;;2220799;26;20254;-58
2024/04/23 04:28:12;;;;;;;4.47;2.30;;;;;20.40;100957.00;;;;2218151;26;20252;-57
2024/04/23 04:29:13;;;;;;;3.63;2.40;;;;;20.40;100969.00;;;;2222194;26;20255;-57
2024/04/23 04:30:13;;;;;;;3.07;1.97;;;;;20.40;100806.00;;;;2226760;26;20734;-57
2024/04/23 04:31:13;;;;;;;3.83;2.40;;;;;20.40;100742.00;;;;2222915;26;20267;-58
2024/04/23 04:32:14;;;;;;;3.93;2.30;;;;;20.40;100698.00;;;;2213879;26;20255;-58
2024/04/23 04:33:14;;;;;;;3.57;2.10;;;;;20.40;100958.00;;;;2222288;26;20247;-58
2024/04/23 04:34:14;;;;;;;4.00;2.20;;;;;20.40;100901.00;;;;2208216;26;20253;-57
2024/04/23 04:35:15;;;;;;;3.93;2.27;;;;;20.30;100898.00;;;;2195466;26;20258;-57
2024/04/23 04:36:15;;;;;;;3.80;2.57;;;;;20.40;100951.00;;;;2210364;26;20259;-58
2024/04/23 04:37:16;;;;;;;3.40;2.13;;;;;20.30;100962.00;;;;2207711;26;20255;-57
2024/04/23 04:38:16;;;;;;;3.10;2.10;;;;;20.30;100980.00;;;;2219883;26;20247;-58
2024/04/23 04:39:16;;;;;;;4.00;2.60;;;;;20.30;101006.00;;;;2222775;26;20263;-58
2024/04/23 04:40:17;;;;;;;3.03;2.10;;;;;20.40;100797.00;;;;2224293;26;20293;-58
2024/04/23 04:41:17;;;;;;;3.93;2.40;;;;;20.40;101002.00;;;;2221875;26;20309;-58
2024/04/23 04:42:17;;;;;;;4.10;2.57;;;;;20.40;100943.00;;;;2209817;26;20351;-58
2024/04/23 04:43:18;;;;;;;3.50;2.57;;;;;20.30;100999.00;;;;2221389;26;20286;-57
2024/04/23 04:44:18;;;;;;;4.00;2.07;;;;;20.40;100820.00;;;;2222099;26;20266;-58
2024/04/23 04:45:19;;;;;;;4.30;2.80;;;;;20.30;100950.00;;;;2222789;26;20251;-57
2024/04/23 04:46:19;;;;;;;3.37;2.33;;;;;20.30;100700.00;;;;2204847;26;20251;-58
2024/04/23 04:47:19;;;;;;;4.60;2.70;;;;;20.30;100605.00;;;;2173542;26;20688;-57
2024/04/23 04:48:20;;;;;;;3.60;2.27;;;;;20.30;100662.00;;;;2200378;26;21114;-57
2024/04/23 04:49:20;;;;;;;3.40;2.20;;;;;20.40;100980.00;;;;2215218;26;20275;-57
2024/04/23 04:50:22;;;;;;;4.03;2.47;;;;;20.30;100972.00;;;;2220638;26;20895;-58
2024/04/23 04:51:22;;;;;;;4.30;2.20;;;;;20.30;100963.00;;;;2225860;26;20285;-58
2024/04/23 04:52:23;;;;;;;4.20;2.60;;;;;20.40;100801.00;;;;2210665;26;20302;-59
2024/04/23 04:53:23;;;;;;;3.20;2.30;;;;;20.30;100802.00;;;;2216514;26;20268;-59
2024/04/23 04:54:24;;;;;;;3.43;2.13;;;;;20.30;100974.00;;;;2215254;26;20304;-59
2024/04/23 04:55:24;;;;;;;3.80;2.50;;;;;20.30;100979.00;;;;2212952;26;20294;-57
2024/04/23 04:56:27;;;;;;;4.10;2.40;;;;;19.40;100986.00;;;;2221304;26;20318;-57
2024/04/23 04:57:27;;;;;;;4.60;2.88;;;;;20.30;100700.00;;;;2209415;26;20264;-58
2024/04/23 04:58:28;;;;;;;3.67;1.70;;;;;20.30;100994.00;;;;2221827;26;20247;-59
2024/04/23 04:59:28;;;;;;;3.40;2.03;;;;;20.30;100985.00;;;;2217689;26;20243;-58
2024/04/23 05:00:28;;;;;;;3.00;2.10;;;;;20.30;100985.00;;;;2223092;26;20252;-57
2024/04/23 05:01:29;;;;;;;3.70;2.20;;;;;20.30;100935.00;;;;2222786;26;20251;-57
2024/04/23 05:02:29;;;;;;;3.97;2.53;;;;;20.30;100962.00;;;;2210247;26;20248;-57
2024/04/23 05:03:29;;;;;;;3.50;2.27;;;;;20.30;100791.00;;;;2221532;26;20853;-58